createdAt,value
2023-04-04T00:02:35.517Z,91971.75
2023-04-04T00:05:21.424Z,91969.84
2023-04-04T00:08:07.187Z,91973.44
2023-04-04T00:10:53.078Z,91961.53
2023-04-04T00:13:39.139Z,91966.00
2023-04-04T00:16:25.037Z,91959.03
2023-04-04T00:19:10.983Z,91961.59
2023-04-04T00:21:56.908Z,91962.03
2023-04-04T00:24:42.833Z,91957.22
2023-04-04T00:27:28.697Z,91960.38
2023-04-04T00:30:14.529Z,91945.66
2023-04-04T00:33:00.492Z,91947.03
2023-04-04T00:35:46.680Z,91949.00
2023-04-04T00:38:33.066Z,91949.59
2023-04-04T00:41:18.929Z,91947.03
2023-04-04T00:44:04.945Z,91942.44
2023-04-04T00:46:50.710Z,91939.38
2023-04-04T00:49:36.578Z,91941.56
2023-04-04T00:52:22.432Z,91929.63
2023-04-04T00:55:08.461Z,91939.47
2023-04-04T00:57:54.390Z,91931.91
2023-04-04T01:00:40.416Z,91932.41
2023-04-04T01:03:26.616Z,91928.97
2023-04-04T01:06:12.492Z,91929.44
2023-04-04T01:08:58.373Z,91930.41
2023-04-04T01:11:44.249Z,91932.41
2023-04-04T01:14:30.163Z,91922.28
2023-04-04T01:17:16.027Z,91930.19
2023-04-04T01:20:01.984Z,91931.16
2023-04-04T01:22:47.803Z,91935.81
2023-04-04T01:25:33.893Z,91938.41
2023-04-04T01:28:19.881Z,91937.66
2023-04-04T01:31:05.877Z,91931.06
2023-04-04T01:33:51.861Z,91933.19
2023-04-04T01:36:37.703Z,91930.22
2023-04-04T01:39:23.691Z,91928.19
2023-04-04T01:42:09.532Z,91938.56
2023-04-04T01:44:55.290Z,91918.53
2023-04-04T01:47:41.197Z,91929.81
2023-04-04T01:50:27.109Z,91936.69
2023-04-04T01:53:13.194Z,91935.72
2023-04-04T01:55:59.153Z,91939.06
2023-04-04T01:58:45.032Z,91939.53
2023-04-04T02:01:31.038Z,91932.56
2023-04-04T02:04:17.053Z,91936.97
2023-04-04T02:07:03.050Z,91940.66
2023-04-04T02:09:50.922Z,91934.38
2023-04-04T02:12:36.834Z,91940.84
2023-04-04T02:15:22.700Z,91931.44
2023-04-04T02:18:08.570Z,91930.56
2023-04-04T02:20:54.399Z,91923.38
2023-04-04T02:23:40.328Z,91931.13
2023-04-04T02:26:26.313Z,91929.38
2023-04-04T02:29:12.196Z,91930.03
2023-04-04T02:31:58.117Z,91932.81
2023-04-04T02:34:43.982Z,91927.84
2023-04-04T02:37:29.838Z,91932.44
2023-04-04T02:40:15.638Z,91932.91
2023-04-04T02:43:01.502Z,91933.13
2023-04-04T02:45:47.337Z,91930.41
2023-04-04T02:48:33.388Z,91923.63
2023-04-04T02:51:19.311Z,91923.38
2023-04-04T02:54:05.103Z,91926.88
2023-04-04T02:56:50.933Z,91923.81
2023-04-04T02:59:36.812Z,91918.69
2023-04-04T03:02:22.702Z,91927.72
2023-04-04T03:05:09.029Z,91910.66
2023-04-04T03:07:54.960Z,91915.34
2023-04-04T03:10:41.325Z,91918.22
2023-04-04T03:13:27.656Z,91924.53
2023-04-04T03:16:13.469Z,91921.50
2023-04-04T03:18:59.441Z,91925.69
2023-04-04T03:21:45.234Z,91925.94
2023-04-04T03:24:31.100Z,91927.16
2023-04-04T03:27:16.818Z,91913.84
2023-04-04T03:30:02.802Z,91917.59
2023-04-04T03:32:48.785Z,91912.34
2023-04-04T03:35:34.611Z,91919.44
2023-04-04T03:38:20.622Z,91904.91
2023-04-04T03:41:06.511Z,91909.91
2023-04-04T03:43:52.494Z,91909.91
2023-04-04T03:46:38.378Z,91919.53
2023-04-04T03:49:24.583Z,91911.81
2023-04-04T03:52:10.414Z,91910.00
2023-04-04T03:54:56.321Z,91910.19
2023-04-04T03:57:42.121Z,91908.25
2023-04-04T04:00:27.879Z,91910.53
2023-04-04T04:03:15.392Z,91910.13
2023-04-04T04:06:02.087Z,91905.81
2023-04-04T04:08:48.003Z,91904.84
2023-04-04T04:11:35.852Z,91905.69
2023-04-04T04:14:21.824Z,91900.59
2023-04-04T04:17:07.708Z,91913.69
2023-04-04T04:19:53.576Z,91920.72
2023-04-04T04:22:39.586Z,91918.69
2023-04-04T04:25:25.532Z,91921.47
2023-04-04T04:28:11.289Z,91924.81
2023-04-04T04:30:57.210Z,91919.53
2023-04-04T04:33:43.087Z,91918.97
2023-04-04T04:36:29.181Z,91918.69
2023-04-04T04:39:15.216Z,91926.19
2023-04-04T04:42:01.058Z,91915.97
2023-04-04T04:44:46.957Z,91922.19
2023-04-04T04:47:33.108Z,91926.06
2023-04-04T04:50:19.106Z,91927.03
2023-04-04T04:53:05.040Z,91928.75
2023-04-04T04:55:50.857Z,91922.00
2023-04-04T04:58:36.776Z,91927.88
2023-04-04T05:01:22.694Z,91932.03
2023-04-04T05:04:08.647Z,91928.50
2023-04-04T05:06:54.471Z,91932.91
2023-04-04T05:09:40.357Z,91933.97
2023-04-04T05:12:26.278Z,91929.91
2023-04-04T05:15:12.223Z,91930.44
2023-04-04T05:17:58.283Z,91932.03
2023-04-04T05:20:44.159Z,91930.44
2023-04-04T05:23:30.083Z,91931.28
2023-04-04T05:26:15.966Z,91932.31
2023-04-04T05:29:01.710Z,91927.94
2023-04-04T05:31:47.735Z,91944.25
2023-04-04T05:34:33.785Z,91939.28
2023-04-04T05:37:19.816Z,91944.03
2023-04-04T05:40:05.593Z,91950.63
2023-04-04T05:42:51.545Z,91941.13
2023-04-04T05:45:39.903Z,91941.94
2023-04-04T05:48:26.537Z,91945.41
2023-04-04T05:51:12.519Z,91948.41
2023-04-04T05:53:58.449Z,91951.75
2023-04-04T05:56:44.257Z,91948.78
2023-04-04T05:59:30.347Z,91946.00
2023-04-04T06:02:16.511Z,91940.94
2023-04-04T06:05:02.350Z,91941.91
2023-04-04T06:07:48.139Z,91949.09
2023-04-04T06:10:34.024Z,91947.69
2023-04-04T06:13:19.930Z,91956.53
2023-04-04T06:16:06.054Z,91956.53
2023-04-04T06:18:51.960Z,91952.63
2023-04-04T06:21:39.956Z,91955.44
2023-04-04T06:24:25.946Z,91955.69
2023-04-04T06:27:11.790Z,91955.22
2023-04-04T06:29:57.900Z,91962.94
2023-04-04T06:32:43.851Z,91959.44
2023-04-04T06:35:29.811Z,91965.06
2023-04-04T06:38:15.757Z,91952.16
2023-04-04T06:41:01.612Z,91967.03
2023-04-04T06:43:47.613Z,91961.91
2023-04-04T06:46:33.596Z,91956.47
2023-04-04T06:49:19.792Z,91971.09
2023-04-04T06:52:05.772Z,91958.16
2023-04-04T06:54:51.567Z,91962.44
2023-04-04T06:57:37.534Z,91971.13
2023-04-04T07:00:23.471Z,91973.84
2023-04-04T07:03:09.365Z,91969.41
2023-04-04T07:05:55.336Z,91961.13
2023-04-04T07:08:41.260Z,91974.91
2023-04-04T07:11:27.272Z,91969.00
2023-04-04T07:14:13.499Z,91967.00
2023-04-04T07:16:59.909Z,91961.69
2023-04-04T07:19:46.711Z,91968.34
2023-04-04T07:22:32.556Z,91973.91
2023-04-04T07:25:18.378Z,91980.53
2023-04-04T07:28:12.320Z,91984.41
2023-04-04T07:30:58.987Z,91985.50
2023-04-04T07:33:44.889Z,91979.38
2023-04-04T07:36:30.834Z,92003.75
2023-04-04T07:39:16.762Z,91990.69
2023-04-04T07:42:02.800Z,91974.63
2023-04-04T07:44:48.644Z,91981.44
2023-04-04T07:47:34.769Z,91977.25
2023-04-04T07:50:20.858Z,91969.97
2023-04-04T07:53:06.790Z,91976.75
2023-04-04T07:55:52.639Z,91972.09
2023-04-04T07:58:38.499Z,91973.41
2023-04-04T08:01:24.347Z,91978.25
2023-04-04T08:04:10.425Z,91989.41
2023-04-04T08:06:56.336Z,91989.31
2023-04-04T08:09:42.238Z,91977.69
2023-04-04T08:12:28.178Z,91990.47
2023-04-04T08:15:14.103Z,91984.22
2023-04-04T08:18:00.138Z,91991.38
2023-04-04T08:20:45.897Z,91984.94
2023-04-04T08:23:31.839Z,91989.91
2023-04-04T08:26:17.779Z,91993.09
2023-04-04T08:29:03.642Z,91987.16
2023-04-04T08:31:49.659Z,91980.19
2023-04-04T08:34:35.556Z,91985.97
2023-04-04T08:37:21.573Z,91984.31
2023-04-04T08:40:07.518Z,91999.28
2023-04-04T08:42:53.248Z,91994.13
2023-04-04T08:45:39.234Z,92008.38
2023-04-04T08:48:25.245Z,92011.06
2023-04-04T08:51:11.071Z,92000.09
2023-04-04T08:53:57.110Z,91997.69
2023-04-04T08:56:42.880Z,91991.66
2023-04-04T08:59:28.853Z,92008.22
2023-04-04T09:02:15.144Z,92005.00
2023-04-04T09:05:06.374Z,92011.22
2023-04-04T09:07:53.108Z,92014.06
2023-04-04T09:10:39.072Z,92011.16
2023-04-04T09:13:25.330Z,92019.34
2023-04-04T09:16:11.232Z,92018.34
2023-04-04T09:18:57.268Z,92007.16
2023-04-04T09:21:43.077Z,92010.38
2023-04-04T09:24:30.207Z,92001.03
2023-04-04T09:27:17.012Z,92005.50
2023-04-04T09:30:05.206Z,92014.88
2023-04-04T09:32:51.894Z,92011.97
2023-04-04T09:35:37.887Z,91995.69
2023-04-04T09:38:24.061Z,92017.38
2023-04-04T09:41:10.045Z,92005.56
2023-04-04T09:43:56.007Z,92007.16
2023-04-04T09:46:41.934Z,92015.97
2023-04-04T09:49:28.106Z,92009.63
2023-04-04T09:52:14.066Z,92026.19
2023-04-04T09:55:00.099Z,92006.16
2023-04-04T09:57:45.938Z,92002.38
2023-04-04T10:00:31.719Z,92004.81
2023-04-04T10:03:17.630Z,92008.19
2023-04-04T10:06:06.261Z,92005.47
2023-04-04T10:08:53.242Z,92005.44
2023-04-04T10:11:39.127Z,92019.81
2023-04-04T10:14:24.993Z,92023.31
2023-04-04T10:17:10.738Z,92015.41
2023-04-04T10:19:56.564Z,92015.25
2023-04-04T10:22:43.613Z,92016.63
2023-04-04T10:25:30.741Z,92020.44
2023-04-04T10:28:16.598Z,92018.63
2023-04-04T10:31:06.674Z,92024.84
2023-04-04T10:33:53.380Z,92030.34
2023-04-04T10:36:39.168Z,92028.38
2023-04-04T10:39:25.278Z,92027.91
2023-04-04T10:42:11.247Z,92026.00
2023-04-04T10:44:58.420Z,92030.16
2023-04-04T10:47:49.727Z,92031.56
2023-04-04T10:50:35.966Z,92043.47
2023-04-04T10:53:23.513Z,92037.84
2023-04-04T10:56:09.806Z,92038.72
2023-04-04T10:58:57.694Z,92044.53
2023-04-04T11:01:43.870Z,92026.66
2023-04-04T11:04:29.976Z,92015.63
2023-04-04T11:07:15.956Z,92029.63
2023-04-04T11:10:01.754Z,92033.06
2023-04-04T11:12:47.725Z,92026.97
2023-04-04T11:15:33.690Z,92021.31
2023-04-04T11:18:32.659Z,92026.25
2023-04-04T11:21:19.899Z,92030.84
2023-04-04T11:24:06.020Z,92031.53
2023-04-04T11:26:52.054Z,92022.31
2023-04-04T11:29:37.982Z,92026.25
2023-04-04T11:32:23.807Z,92033.78
2023-04-04T11:35:09.750Z,92022.94
2023-04-04T11:37:55.722Z,92023.88
2023-04-04T11:40:41.459Z,92019.31
2023-04-04T11:43:27.365Z,92025.59
2023-04-04T11:46:13.400Z,92026.19
2023-04-04T11:48:59.269Z,92027.63
2023-04-04T11:51:45.116Z,92031.81
2023-04-04T11:54:31.087Z,92026.22
2023-04-04T11:57:16.990Z,92014.25
2023-04-04T12:00:02.736Z,92016.00
2023-04-04T12:02:48.646Z,92012.34
2023-04-04T12:05:34.671Z,92005.41
2023-04-04T12:08:20.925Z,92005.34
2023-04-04T12:11:08.483Z,92004.28
2023-04-04T12:13:54.521Z,92006.75
2023-04-04T12:16:40.457Z,92009.41
2023-04-04T12:19:26.708Z,92006.06
2023-04-04T12:22:12.655Z,92016.00
2023-04-04T12:24:58.341Z,92015.47
2023-04-04T12:27:51.825Z,92011.06
2023-04-04T12:30:38.095Z,91999.19
2023-04-04T12:33:23.938Z,92000.06
2023-04-04T12:36:09.851Z,92007.59
2023-04-04T12:38:55.761Z,92015.31
2023-04-04T12:41:41.710Z,92016.09
2023-04-04T12:44:27.585Z,92017.34
2023-04-04T12:47:13.661Z,92007.00
2023-04-04T12:49:59.704Z,92005.38
2023-04-04T12:52:46.181Z,92006.03
2023-04-04T12:55:32.282Z,91998.38
2023-04-04T12:58:18.102Z,92011.06
2023-04-04T13:01:04.144Z,92011.66
2023-04-04T13:03:50.397Z,92005.06
2023-04-04T13:06:36.346Z,91998.91
2023-04-04T13:09:22.233Z,92003.13
2023-04-04T13:12:07.973Z,92016.91
2023-04-04T13:14:54.044Z,92006.69
2023-04-04T13:17:40.028Z,92015.13
2023-04-04T13:20:25.888Z,92009.16
2023-04-04T13:23:11.866Z,92009.06
2023-04-04T13:25:57.686Z,92009.28
2023-04-04T13:28:43.657Z,92005.38
2023-04-04T13:31:29.605Z,92011.34
2023-04-04T13:34:15.438Z,92018.44
2023-04-04T13:37:01.281Z,92004.69
2023-04-04T13:39:47.300Z,92012.00
2023-04-04T13:42:33.185Z,92003.38
2023-04-04T13:45:19.133Z,91992.06
2023-04-04T13:48:04.998Z,92002.97
2023-04-04T13:50:50.823Z,92007.69
2023-04-04T13:53:36.735Z,91993.63
2023-04-04T13:56:22.662Z,92002.22
2023-04-04T13:59:08.924Z,92002.78
2023-04-04T14:01:54.966Z,92000.47
2023-04-04T14:04:41.262Z,92005.88
2023-04-04T14:07:27.496Z,92014.91
2023-04-04T14:10:13.360Z,91997.69
2023-04-04T14:12:59.320Z,92002.75
2023-04-04T14:15:45.476Z,91995.56
2023-04-04T14:18:31.295Z,92001.13
2023-04-04T14:21:17.452Z,92005.06
2023-04-04T14:24:03.526Z,91992.78
2023-04-04T14:26:49.523Z,91995.66
2023-04-04T14:29:35.453Z,91996.94
2023-04-04T14:32:21.556Z,91997.97
2023-04-04T14:35:07.574Z,92001.97
2023-04-04T14:37:55.190Z,91990.84
2023-04-04T14:40:41.780Z,92016.34
2023-04-04T14:43:27.590Z,91997.00
2023-04-04T14:46:13.689Z,92006.78
2023-04-04T14:48:59.582Z,92007.78
2023-04-04T14:51:45.421Z,92004.06
2023-04-04T14:54:31.260Z,92014.06
2023-04-04T14:57:17.254Z,92001.25
2023-04-04T15:00:03.223Z,92010.50
2023-04-04T15:02:49.067Z,92018.59
2023-04-04T15:05:35.145Z,92021.44
2023-04-04T15:08:21.042Z,92012.63
2023-04-04T15:11:07.009Z,92007.84
2023-04-04T15:13:52.994Z,92008.31
2023-04-04T15:16:38.825Z,91999.38
2023-04-04T15:19:26.892Z,92005.69
2023-04-04T15:22:12.834Z,92004.16
2023-04-04T15:24:58.754Z,92006.13
2023-04-04T15:27:44.731Z,92012.00
2023-04-04T15:30:30.720Z,92012.13
2023-04-04T15:33:16.748Z,92021.34
2023-04-04T15:36:02.662Z,92008.81
2023-04-04T15:38:48.549Z,92017.50
2023-04-04T15:41:34.409Z,92015.72
2023-04-04T15:44:20.317Z,92013.22
2023-04-04T15:47:06.345Z,92017.44
2023-04-04T15:49:52.291Z,92016.34
2023-04-04T15:52:38.155Z,92021.22
2023-04-04T15:55:24.042Z,92025.03
2023-04-04T15:58:10.000Z,92014.91
2023-04-04T16:00:56.003Z,92015.78
2023-04-04T16:03:41.888Z,92009.16
2023-04-04T16:06:28.205Z,92013.78
2023-04-04T16:09:14.069Z,92017.72
2023-04-04T16:11:59.982Z,92011.28
2023-04-04T16:14:45.828Z,92022.50
2023-04-04T16:17:33.331Z,92026.28
2023-04-04T16:20:19.573Z,92036.63
2023-04-04T16:23:05.570Z,92034.38
2023-04-04T16:25:51.360Z,92040.53
2023-04-04T16:28:37.363Z,92023.59
2023-04-04T16:31:23.368Z,92029.69
2023-04-04T16:34:09.311Z,92030.56
2023-04-04T16:36:55.499Z,92031.00
2023-04-04T16:39:41.577Z,92031.44
2023-04-04T16:42:27.493Z,92027.91
2023-04-04T16:45:13.529Z,92037.72
2023-04-04T16:47:59.418Z,92038.34
2023-04-04T16:50:45.381Z,92035.94
2023-04-04T16:53:31.314Z,92043.41
2023-04-04T16:56:17.186Z,92044.00
2023-04-04T16:59:03.192Z,92053.91
2023-04-04T17:01:49.110Z,92058.63
2023-04-04T17:04:35.160Z,92056.44
2023-04-04T17:07:21.191Z,92060.53
2023-04-04T17:10:07.065Z,92050.16
2023-04-04T17:12:53.048Z,92061.53
2023-04-04T17:15:38.837Z,92060.06
2023-04-04T17:18:24.672Z,92072.56
2023-04-04T17:21:10.606Z,92059.88
2023-04-04T17:23:56.472Z,92056.13
2023-04-04T17:26:42.489Z,92072.69
2023-04-04T17:29:28.313Z,92066.38
2023-04-04T17:32:14.434Z,92071.59
2023-04-04T17:35:00.907Z,92066.28
2023-04-04T17:37:46.729Z,92068.28
2023-04-04T17:40:32.866Z,92057.88
2023-04-04T17:43:18.712Z,92065.44
2023-04-04T17:46:04.575Z,92053.47
2023-04-04T17:48:50.641Z,92048.34
2023-04-04T17:51:36.537Z,92049.09
2023-04-04T17:54:22.449Z,92051.28
2023-04-04T17:57:08.392Z,92053.47
2023-04-04T17:59:54.524Z,92049.94
2023-04-04T18:02:40.730Z,92051.63
2023-04-04T18:05:26.792Z,92059.63
2023-04-04T18:08:12.618Z,92057.78
2023-04-04T18:10:58.472Z,92060.22
2023-04-04T18:13:44.566Z,92060.88
2023-04-04T18:16:30.613Z,92071.41
2023-04-04T18:19:16.849Z,92069.72
2023-04-04T18:22:02.592Z,92071.13
2023-04-04T18:24:48.876Z,92075.69
2023-04-04T18:27:35.262Z,92071.59
2023-04-04T18:30:40.349Z,92068.19
2023-04-04T18:33:35.647Z,92079.66
2023-04-04T18:36:21.526Z,92057.81
2023-04-04T18:39:07.397Z,92062.09
2023-04-04T18:41:53.269Z,92056.75
2023-04-04T18:44:39.012Z,92066.69
2023-04-04T18:47:24.996Z,92069.41
2023-04-04T18:50:10.920Z,92065.47
2023-04-04T18:52:56.705Z,92065.00
2023-04-04T18:55:42.695Z,92075.22
2023-04-04T18:58:28.539Z,92081.75
2023-04-04T19:01:14.607Z,92077.47
2023-04-04T19:04:00.596Z,92074.13
2023-04-04T19:06:46.411Z,92068.63
2023-04-04T19:09:32.428Z,92070.16
2023-04-04T19:12:18.422Z,92078.41
2023-04-04T19:15:04.307Z,92077.00
2023-04-04T19:17:50.262Z,92082.63
2023-04-04T19:20:36.149Z,92083.50
2023-04-04T19:23:22.204Z,92090.41
2023-04-04T19:26:08.087Z,92088.84
2023-04-04T19:28:53.999Z,92083.31
2023-04-04T19:31:39.856Z,92076.16
2023-04-04T19:34:25.556Z,92083.19
2023-04-04T19:37:11.461Z,92091.28
2023-04-04T19:39:57.420Z,92088.06
2023-04-04T19:42:43.211Z,92092.81
2023-04-04T19:45:29.041Z,92092.72
2023-04-04T19:48:15.024Z,92096.41
2023-04-04T19:51:00.838Z,92096.63
2023-04-04T19:53:46.796Z,92096.06
2023-04-04T19:56:32.592Z,92099.75
2023-04-04T19:59:18.550Z,92100.91
2023-04-04T20:02:04.712Z,92097.56
2023-04-04T20:04:50.633Z,92095.09
2023-04-04T20:07:36.598Z,92098.75
2023-04-04T20:10:22.426Z,92092.34
2023-04-04T20:13:08.302Z,92106.56
2023-04-04T20:15:54.336Z,92099.16
2023-04-04T20:18:40.121Z,92112.88
2023-04-04T20:21:25.933Z,92105.78
2023-04-04T20:24:11.925Z,92107.09
2023-04-04T20:26:57.939Z,92108.03
2023-04-04T20:29:43.866Z,92113.63
2023-04-04T20:32:29.862Z,92113.25
2023-04-04T20:35:15.709Z,92116.72
2023-04-04T20:38:01.642Z,92115.41
2023-04-04T20:40:47.394Z,92112.38
2023-04-04T20:43:33.421Z,92114.28
2023-04-04T20:46:19.372Z,92113.06
2023-04-04T20:49:05.355Z,92110.34
2023-04-04T20:51:51.179Z,92117.94
2023-04-04T20:54:37.033Z,92108.69
2023-04-04T20:57:23.092Z,92118.09
2023-04-04T21:00:09.057Z,92109.53
2023-04-04T21:02:54.837Z,92118.28
2023-04-04T21:05:40.748Z,92114.03
2023-04-04T21:08:26.611Z,92115.63
2023-04-04T21:11:12.489Z,92110.50
2023-04-04T21:13:58.544Z,92110.78
2023-04-04T21:16:44.355Z,92111.75
2023-04-04T21:19:30.407Z,92108.69
2023-04-04T21:22:16.339Z,92108.34
2023-04-04T21:25:02.280Z,92123.75
2023-04-04T21:27:48.251Z,92120.41
2023-04-04T21:30:34.184Z,92115.63
2023-04-04T21:33:20.033Z,92111.91
2023-04-04T21:36:05.985Z,92118.97
2023-04-04T21:38:51.936Z,92110.56
2023-04-04T21:41:37.771Z,92113.84
2023-04-04T21:44:23.663Z,92117.84
2023-04-04T21:47:09.526Z,92120.00
2023-04-04T21:49:55.310Z,92122.59
2023-04-04T21:52:41.235Z,92115.97
2023-04-04T21:55:27.154Z,92117.94
2023-04-04T21:58:13.130Z,92123.56
2023-04-04T22:00:59.081Z,92117.66
2023-04-04T22:03:44.960Z,92122.53
2023-04-04T22:06:30.731Z,92124.25
2023-04-04T22:09:16.690Z,92124.47
2023-04-04T22:12:02.653Z,92129.66
2023-04-04T22:14:48.583Z,92138.25
2023-04-04T22:17:34.559Z,92126.47
2023-04-04T22:20:20.523Z,92130.41
2023-04-04T22:23:06.378Z,92136.34
2023-04-04T22:25:52.236Z,92129.56
2023-04-04T22:28:39.093Z,92132.34
2023-04-04T22:31:25.140Z,92127.34
2023-04-04T22:34:13.289Z,92124.28
2023-04-04T22:37:01.034Z,92129.06
2023-04-04T22:39:46.807Z,92126.47
2023-04-04T22:42:32.775Z,92126.22
2023-04-04T22:45:18.570Z,92130.22
2023-04-04T22:48:04.424Z,92131.38
2023-04-04T22:50:50.358Z,92129.63
2023-04-04T22:53:36.283Z,92125.22
2023-04-04T22:56:22.198Z,92125.63
2023-04-04T22:59:08.244Z,92123.91
2023-04-04T23:01:54.109Z,92133.00
2023-04-04T23:04:40.089Z,92126.13
2023-04-04T23:07:25.748Z,92131.34
2023-04-04T23:10:11.704Z,92127.28
2023-04-04T23:12:57.636Z,92137.41
2023-04-04T23:15:43.485Z,92129.84
2023-04-04T23:18:29.478Z,92133.84
2023-04-04T23:21:15.456Z,92126.00
2023-04-04T23:24:01.326Z,92124.28
2023-04-04T23:26:47.196Z,92134.31
2023-04-04T23:29:33.026Z,92126.75
2023-04-04T23:32:20.943Z,92130.78
2023-04-04T23:35:06.922Z,92122.94
2023-04-04T23:37:52.703Z,92120.25
2023-04-04T23:40:38.648Z,92114.41
2023-04-04T23:43:24.961Z,92114.53
2023-04-04T23:46:10.852Z,92114.31
2023-04-04T23:48:56.725Z,92109.91
2023-04-04T23:51:42.647Z,92114.53
2023-04-04T23:54:28.515Z,92118.13
2023-04-04T23:57:14.570Z,92118.53
